Terminal Aerodrome Forecast
Issued by NWS

Home | Current Version | Previous Version | Text Only | Print | Product List | Glossary On
Versions: 1 2 3 4 5 6 7 8 9 10 11 12 13 14 15 16 17 18
000
FTUS44 KLZK 271700 RRA
TAFHOT
TAF
KHOT 271749Z 2718/2818 32010G18KT 4SM -DZ BR SCT004 BKN008
      TEMPO 2718/2721 1SM -RA BR BKN004
     FM272300 35005KT 5SM -RA BR BKN012
     FM280400 01004KT 6SM BR BKN008
     FM281100 36004KT P6SM SCT008 OVC015=

USA.gov is the U.S. government's official web portal to all federal, state and local government web resources and services.